sensor_id;sensor_type;location;lat;lon;timestamp;pressure;altitude;pressure_sealevel;temperature;humidity
64023;BME280;50264;52.088;5.296;2023-02-21T02:14:47;101944.0;;;9.59;95.77
64023;BME280;50264;52.088;5.296;2023-02-21T02:16:31;101945.0;;;9.63;95.26
64023;BME280;50264;52.088;5.296;2023-02-21T02:19:29;101940.0;;;9.59;95.15
64023;BME280;50264;52.088;5.296;2023-02-21T02:22:12;101944.0;;;9.63;95.4
64023;BME280;50264;52.088;5.296;2023-02-21T02:24:52;101946.0;;;9.57;95.58
64023;BME280;50264;52.088;5.296;2023-02-21T02:27:04;101942.0;;;9.64;95.16
64023;BME280;50264;52.088;5.296;2023-02-21T02:30:38;101943.0;;;9.67;95.03
64023;BME280;50264;52.088;5.296;2023-02-21T02:33:59;101944.0;;;9.58;95.25
64023;BME280;50264;52.088;5.296;2023-02-21T02:36:38;101944.0;;;9.63;95.38
64023;BME280;50264;52.088;5.296;2023-02-21T02:38:22;101944.0;;;9.59;95.58
64023;BME280;50264;52.088;5.296;2023-02-21T02:41:55;101939.0;;;9.57;95.67
64023;BME280;50264;52.088;5.296;2023-02-21T02:43:43;101939.0;;;9.51;95.87
64023;BME280;50264;52.088;5.296;2023-02-21T02:45:29;101943.0;;;9.59;95.65
64023;BME280;50264;52.088;5.296;2023-02-21T02:47:13;101945.0;;;9.64;95.36
64023;BME280;50264;52.088;5.296;2023-02-21T02:48:58;101937.0;;;9.57;95.76
64023;BME280;50264;52.088;5.296;2023-02-21T02:50:38;101942.0;;;9.44;96.43
64023;BME280;50264;52.088;5.296;2023-02-21T02:53:52;101944.0;;;9.49;96.28
64023;BME280;50264;52.088;5.296;2023-02-21T02:55:34;101947.0;;;9.48;96.28
64023;BME280;50264;52.088;5.296;2023-02-21T02:57:12;101942.0;;;9.48;96.22
64023;BME280;50264;52.088;5.296;2023-02-21T03:00:33;101949.0;;;9.48;96.2
64023;BME280;50264;52.088;5.296;2023-02-21T03:02:50;101945.0;;;9.48;96.44
64023;BME280;50264;52.088;5.296;2023-02-21T03:04:46;101949.0;;;9.53;96.3
64023;BME280;50264;52.088;5.296;2023-02-21T03:06:40;101949.0;;;9.52;96.39
64023;BME280;50264;52.088;5.296;2023-02-21T03:08:31;101940.0;;;9.5;96.52
64023;BME280;50264;52.088;5.296;2023-02-21T03:10:23;101933.0;;;9.51;96.32
64023;BME280;50264;52.088;5.296;2023-02-21T03:12:08;101937.0;;;9.55;96.17
64023;BME280;50264;52.088;5.296;2023-02-21T03:13:54;101936.0;;;9.41;96.94
64023;BME280;50264;52.088;5.296;2023-02-21T03:17:22;101939.0;;;9.47;96.88
64023;BME280;50264;52.088;5.296;2023-02-21T03:19:06;101934.0;;;9.38;97.53
64023;BME280;50264;52.088;5.296;2023-02-21T03:20:44;101935.0;;;9.36;97.63
64023;BME280;50264;52.088;5.296;2023-02-21T03:22:28;101933.0;;;9.35;97.59
64023;BME280;50264;52.088;5.296;2023-02-21T03:24:08;101930.0;;;9.41;97.08
64023;BME280;50264;52.088;5.296;2023-02-21T03:29:05;101928.0;;;9.57;96.73
64023;BME280;50264;52.088;5.296;2023-02-21T03:30:43;101931.0;;;9.53;96.69
64023;BME280;50264;52.088;5.296;2023-02-21T03:33:57;101935.0;;;9.55;96.53
64023;BME280;50264;52.088;5.296;2023-02-21T03:35:33;101932.0;;;9.56;96.72
64023;BME280;50264;52.088;5.296;2023-02-21T03:37:18;101934.0;;;9.56;96.63
64023;BME280;50264;52.088;5.296;2023-02-21T03:38:57;101931.0;;;9.59;96.29
64023;BME280;50264;52.088;5.296;2023-02-21T03:42:09;101927.0;;;9.57;96.1
64023;BME280;50264;52.088;5.296;2023-02-21T03:43:45;101928.0;;;9.65;96.1
64023;BME280;50264;52.088;5.296;2023-02-21T03:45:21;101931.0;;;9.65;95.72
64023;BME280;50264;52.088;5.296;2023-02-21T03:48:35;101930.0;;;9.75;95.76
64023;BME280;50264;52.088;5.296;2023-02-21T03:50:11;101926.0;;;9.71;96.03
64023;BME280;50264;52.088;5.296;2023-02-21T03:51:48;101928.0;;;9.57;96.15
64023;BME280;50264;52.088;5.296;2023-02-21T03:53:24;101927.0;;;9.64;96.38
64023;BME280;50264;52.088;5.296;2023-02-21T03:56:37;101933.0;;;9.56;96.7
64023;BME280;50264;52.088;5.296;2023-02-21T03:58:14;101935.0;;;9.41;97.19
64023;BME280;50264;52.088;5.296;2023-02-21T03:59:50;101930.0;;;9.46;97.12
64023;BME280;50264;52.088;5.296;2023-02-21T04:03:03;101930.0;;;9.52;97.01
64023;BME280;50264;52.088;5.296;2023-02-21T04:04:39;101920.0;;;9.53;96.71
64023;BME280;50264;52.088;5.296;2023-02-21T04:06:16;101922.0;;;9.4;97.4
64023;BME280;50264;52.088;5.296;2023-02-21T04:09:29;101921.0;;;9.48;97.31
64023;BME280;50264;52.088;5.296;2023-02-21T04:11:05;101919.0;;;9.53;97.16
64023;BME280;50264;52.088;5.296;2023-02-21T04:12:42;101923.0;;;9.55;96.73
64023;BME280;50264;52.088;5.296;2023-02-21T04:14:18;101920.0;;;9.56;96.84
64023;BME280;50264;52.088;5.296;2023-02-21T04:17:31;101920.0;;;9.71;96.14
64023;BME280;50264;52.088;5.296;2023-02-21T04:19:06;101922.0;;;9.47;96.72
64023;BME280;50264;52.088;5.296;2023-02-21T04:20:45;101930.0;;;9.31;97.81
64023;BME280;50264;52.088;5.296;2023-02-21T04:23:58;101933.0;;;9.27;98.34
64023;BME280;50264;52.088;5.296;2023-02-21T04:25:34;101930.0;;;9.41;97.86
64023;BME280;50264;52.088;5.296;2023-02-21T04:27:12;101927.0;;;9.39;97.83
64023;BME280;50264;52.088;5.296;2023-02-21T04:30:24;101915.0;;;9.33;98.18
64023;BME280;50264;52.088;5.296;2023-02-21T04:32:02;101921.0;;;9.31;98.25
64023;BME280;50264;52.088;5.296;2023-02-21T04:33:38;101922.0;;;9.34;98.07
64023;BME280;50264;52.088;5.296;2023-02-21T04:35:15;101917.0;;;9.4;97.86
64023;BME280;50264;52.088;5.296;2023-02-21T04:38:27;101919.0;;;9.31;98.21
64023;BME280;50264;52.088;5.296;2023-02-21T04:40:04;101911.0;;;9.38;98.3
64023;BME280;50264;52.088;5.296;2023-02-21T04:44:55;101909.0;;;9.24;98.81
64023;BME280;50264;52.088;5.296;2023-02-21T04:46:32;101905.0;;;9.27;98.65
64023;BME280;50264;52.088;5.296;2023-02-21T04:48:09;101901.0;;;9.31;98.42
64023;BME280;50264;52.088;5.296;2023-02-21T04:51:26;101899.0;;;9.4;98.23
64023;BME280;50264;52.088;5.296;2023-02-21T04:53:02;101899.0;;;9.3;98.47
64023;BME280;50264;52.088;5.296;2023-02-21T04:54:38;101901.0;;;9.31;98.82
64023;BME280;50264;52.088;5.296;2023-02-21T04:56:17;101896.0;;;9.22;99.09
64023;BME280;50264;52.088;5.296;2023-02-21T04:59:30;101897.0;;;9.39;98.76
64023;BME280;50264;52.088;5.296;2023-02-21T05:01:06;101889.0;;;9.36;98.6
64023;BME280;50264;52.088;5.296;2023-02-21T05:02:42;101889.0;;;9.39;98.39
64023;BME280;50264;52.088;5.296;2023-02-21T05:05:56;101895.0;;;9.34;98.55
64023;BME280;50264;52.088;5.296;2023-02-21T05:07:32;101890.0;;;9.41;98.47
64023;BME280;50264;52.088;5.296;2023-02-21T05:09:08;101897.0;;;9.43;98.21
64023;BME280;50264;52.088;5.296;2023-02-21T05:10:45;101897.0;;;9.33;98.57
64023;BME280;50264;52.088;5.296;2023-02-21T05:13:57;101897.0;;;9.35;98.46
64023;BME280;50264;52.088;5.296;2023-02-21T05:15:34;101903.0;;;9.35;98.62
64023;BME280;50264;52.088;5.296;2023-02-21T05:17:10;101900.0;;;9.41;98.49
64023;BME280;50264;52.088;5.296;2023-02-21T05:20:24;101896.0;;;9.48;98.11
64023;BME280;50264;52.088;5.296;2023-02-21T05:22:02;101910.0;;;9.51;97.94
64023;BME280;50264;52.088;5.296;2023-02-21T05:23:40;101907.0;;;9.5;97.92
64023;BME280;50264;52.088;5.296;2023-02-21T05:26:56;101910.0;;;9.46;98.0
64023;BME280;50264;52.088;5.296;2023-02-21T05:28:33;101908.0;;;9.36;98.65
64023;BME280;50264;52.088;5.296;2023-02-21T05:30:10;101916.0;;;9.35;98.57
64023;BME280;50264;52.088;5.296;2023-02-21T05:31:48;101915.0;;;9.35;98.73
64023;BME280;50264;52.088;5.296;2023-02-21T05:35:01;101916.0;;;9.3;98.93
64023;BME280;50264;52.088;5.296;2023-02-21T05:36:38;101915.0;;;9.36;98.99
64023;BME280;50264;52.088;5.296;2023-02-21T05:38:16;101913.0;;;9.39;98.48
64023;BME280;50264;52.088;5.296;2023-02-21T05:41:29;101912.0;;;9.4;98.33
64023;BME280;50264;52.088;5.296;2023-02-21T05:43:06;101912.0;;;9.48;98.38
64023;BME280;50264;52.088;5.296;2023-02-21T05:44:43;101913.0;;;9.48;98.2
64023;BME280;50264;52.088;5.296;2023-02-21T05:46:23;101919.0;;;9.51;97.99
64023;BME280;50264;52.088;5.296;2023-02-21T05:49:39;101923.0;;;9.47;98.27
64023;BME280;50264;52.088;5.296;2023-02-21T05:51:15;101924.0;;;9.48;98.07
64023;BME280;50264;52.088;5.296;2023-02-21T05:52:52;101924.0;;;9.5;98.02
64023;BME280;50264;52.088;5.296;2023-02-21T05:56:04;101920.0;;;9.47;98.19
64023;BME280;50264;52.088;5.296;2023-02-21T05:57:40;101910.0;;;9.52;97.88
64023;BME280;50264;52.088;5.296;2023-02-21T05:59:19;101912.0;;;9.48;97.85
64023;BME280;50264;52.088;5.296;2023-02-21T06:00:56;101912.0;;;9.41;98.32
64023;BME280;50264;52.088;5.296;2023-02-21T06:04:09;101925.0;;;9.38;98.5
64023;BME280;50264;52.088;5.296;2023-02-21T06:05:46;101926.0;;;9.32;99.13
64023;BME280;50264;52.088;5.296;2023-02-21T06:07:22;101931.0;;;9.32;99.13
64023;BME280;50264;52.088;5.296;2023-02-21T06:10:35;101924.0;;;9.31;99.14
64023;BME280;50264;52.088;5.296;2023-02-21T06:12:12;101920.0;;;9.38;99.08
64023;BME280;50264;52.088;5.296;2023-02-21T06:13:49;101918.0;;;9.36;99.06
64023;BME280;50264;52.088;5.296;2023-02-21T06:17:02;101920.0;;;9.28;99.11
64023;BME280;50264;52.088;5.296;2023-02-21T06:18:38;101923.0;;;9.39;98.79
64023;BME280;50264;52.088;5.296;2023-02-21T06:20:15;101923.0;;;9.31;99.21
64023;BME280;50264;52.088;5.296;2023-02-21T06:21:53;101928.0;;;9.43;98.77
64023;BME280;50264;52.088;5.296;2023-02-21T06:25:06;101931.0;;;9.39;98.94
64023;BME280;50264;52.088;5.296;2023-02-21T06:26:44;101930.0;;;9.4;98.79
64023;BME280;50264;52.088;5.296;2023-02-21T06:28:20;101925.0;;;9.41;98.68
64023;BME280;50264;52.088;5.296;2023-02-21T06:31:33;101917.0;;;9.48;98.72
64023;BME280;50264;52.088;5.296;2023-02-21T06:33:09;101922.0;;;9.49;98.64
64023;BME280;50264;52.088;5.296;2023-02-21T06:34:45;101920.0;;;9.38;98.83
64023;BME280;50264;52.088;5.296;2023-02-21T06:38:01;101930.0;;;9.27;99.59
64023;BME280;50264;52.088;5.296;2023-02-21T06:39:38;101930.0;;;9.27;99.73
64023;BME280;50264;52.088;5.296;2023-02-21T06:41:16;101935.0;;;9.34;99.3
64023;BME280;50264;52.088;5.296;2023-02-21T06:42:54;101931.0;;;9.33;99.49
64023;BME280;50264;52.088;5.296;2023-02-21T06:46:07;101937.0;;;9.34;99.64
64023;BME280;50264;52.088;5.296;2023-02-21T06:47:42;101934.0;;;9.39;99.36
64023;BME280;50264;52.088;5.296;2023-02-21T06:49:19;101940.0;;;9.39;99.07
64023;BME280;50264;52.088;5.296;2023-02-21T06:52:32;101940.0;;;9.44;98.97
64023;BME280;50264;52.088;5.296;2023-02-21T06:54:08;101941.0;;;9.43;98.64
64023;BME280;50264;52.088;5.296;2023-02-21T06:55:44;101936.0;;;9.47;98.73
64023;BME280;50264;52.088;5.296;2023-02-21T06:58:57;101932.0;;;9.55;98.69
64023;BME280;50264;52.088;5.296;2023-02-21T07:00:33;101934.0;;;9.57;98.17
64023;BME280;50264;52.088;5.296;2023-02-21T07:02:14;101933.0;;;9.47;98.35
64023;BME280;50264;52.088;5.296;2023-02-21T07:03:53;101931.0;;;9.48;98.72
64023;BME280;50264;52.088;5.296;2023-02-21T07:07:09;101932.0;;;9.42;98.82
64023;BME280;50264;52.088;5.296;2023-02-21T07:08:46;101936.0;;;9.43;98.85
64023;BME280;50264;52.088;5.296;2023-02-21T07:10:22;101934.0;;;9.48;98.73
64023;BME280;50264;52.088;5.296;2023-02-21T07:15:11;101931.0;;;9.43;99.09
64023;BME280;50264;52.088;5.296;2023-02-21T07:16:48;101932.0;;;9.53;98.85
64023;BME280;50264;52.088;5.296;2023-02-21T07:18:26;101936.0;;;9.56;98.54
64023;BME280;50264;52.088;5.296;2023-02-21T07:21:40;101935.0;;;9.51;98.78
64023;BME280;50264;52.088;5.296;2023-02-21T07:23:16;101940.0;;;9.41;99.07
64023;BME280;50264;52.088;5.296;2023-02-21T07:24:53;101937.0;;;9.53;98.78
64023;BME280;50264;52.088;5.296;2023-02-21T07:28:06;101931.0;;;9.53;98.76
64023;BME280;50264;52.088;5.296;2023-02-21T07:29:42;101933.0;;;9.61;98.38
64023;BME280;50264;52.088;5.296;2023-02-21T07:31:22;101937.0;;;9.65;98.11
64023;BME280;50264;52.088;5.296;2023-02-21T07:34:35;101930.0;;;9.59;98.13
64023;BME280;50264;52.088;5.296;2023-02-21T07:36:11;101933.0;;;9.64;98.19
64023;BME280;50264;52.088;5.296;2023-02-21T07:37:47;101935.0;;;9.64;97.64
64023;BME280;50264;52.088;5.296;2023-02-21T07:39:23;101937.0;;;9.5;98.49
64023;BME280;50264;52.088;5.296;2023-02-21T07:42:40;101934.0;;;9.49;98.74
64023;BME280;50264;52.088;5.296;2023-02-21T07:44:19;101935.0;;;9.47;98.8
64023;BME280;50264;52.088;5.296;2023-02-21T07:45:55;101935.0;;;9.48;99.13
64023;BME280;50264;52.088;5.296;2023-02-21T07:49:08;101936.0;;;9.52;98.8
64023;BME280;50264;52.088;5.296;2023-02-21T07:50:45;101939.0;;;9.42;98.98
64023;BME280;50264;52.088;5.296;2023-02-21T07:52:22;101941.0;;;9.48;98.97
64023;BME280;50264;52.088;5.296;2023-02-21T07:53:58;101949.0;;;9.49;99.04
64023;BME280;50264;52.088;5.296;2023-02-21T07:57:10;101955.0;;;9.53;98.91
64023;BME280;50264;52.088;5.296;2023-02-21T07:58:47;101950.0;;;9.58;98.69
64023;BME280;50264;52.088;5.296;2023-02-21T08:00:24;101952.0;;;9.56;98.84
64023;BME280;50264;52.088;5.296;2023-02-21T08:03:40;101952.0;;;9.52;98.95
64023;BME280;50264;52.088;5.296;2023-02-21T08:05:18;101950.0;;;9.47;99.34
64023;BME280;50264;52.088;5.296;2023-02-21T08:06:58;101950.0;;;9.57;98.77
64023;BME280;50264;52.088;5.296;2023-02-21T08:08:34;101958.0;;;9.51;99.33
64023;BME280;50264;52.088;5.296;2023-02-21T08:11:49;101955.0;;;9.55;99.26
64023;BME280;50264;52.088;5.296;2023-02-21T08:13:25;101955.0;;;9.48;99.58
64023;BME280;50264;52.088;5.296;2023-02-21T08:15:01;101957.0;;;9.57;99.26
64023;BME280;50264;52.088;5.296;2023-02-21T08:18:19;101961.0;;;9.57;98.98
64023;BME280;50264;52.088;5.296;2023-02-21T08:19:57;101959.0;;;9.56;99.12
64023;BME280;50264;52.088;5.296;2023-02-21T08:21:33;101952.0;;;9.6;98.49
64023;BME280;50264;52.088;5.296;2023-02-21T08:24:48;101949.0;;;9.59;99.14
64023;BME280;50264;52.088;5.296;2023-02-21T08:26:24;101944.0;;;9.56;99.16
64023;BME280;50264;52.088;5.296;2023-02-21T08:28:00;101951.0;;;9.56;99.06
64023;BME280;50264;52.088;5.296;2023-02-21T08:29:37;101951.0;;;9.61;98.93
64023;BME280;50264;52.088;5.296;2023-02-21T08:32:50;101944.0;;;9.56;99.05
64023;BME280;50264;52.088;5.296;2023-02-21T08:34:28;101943.0;;;9.53;99.26
64023;BME280;50264;52.088;5.296;2023-02-21T08:36:05;101942.0;;;9.48;99.49
64023;BME280;50264;52.088;5.296;2023-02-21T08:39:21;101940.0;;;9.57;99.87
64023;BME280;50264;52.088;5.296;2023-02-21T08:40:58;101939.0;;;9.53;99.85
64023;BME280;50264;52.088;5.296;2023-02-21T08:42:34;101940.0;;;9.59;99.66
64023;BME280;50264;52.088;5.296;2023-02-21T08:44:12;101946.0;;;9.5;99.6
64023;BME280;50264;52.088;5.296;2023-02-21T08:47:25;101942.0;;;9.52;99.79
64023;BME280;50264;52.088;5.296;2023-02-21T08:49:03;101940.0;;;9.58;99.72
64023;BME280;50264;52.088;5.296;2023-02-21T08:50:39;101940.0;;;9.53;99.59
64023;BME280;50264;52.088;5.296;2023-02-21T08:53:53;101935.0;;;9.55;99.84
64023;BME280;50264;52.088;5.296;2023-02-21T08:55:29;101936.0;;;9.56;99.7
64023;BME280;50264;52.088;5.296;2023-02-21T08:57:05;101935.0;;;9.55;99.78
64023;BME280;50264;52.088;5.296;2023-02-21T09:00:21;101941.0;;;9.67;99.54
64023;BME280;50264;52.088;5.296;2023-02-21T09:01:58;101941.0;;;9.61;99.26
64023;BME280;50264;52.088;5.296;2023-02-21T09:03:35;101944.0;;;9.64;99.44
64023;BME280;50264;52.088;5.296;2023-02-21T09:05:15;101931.0;;;9.73;99.01
64023;BME280;50264;52.088;5.296;2023-02-21T09:08:30;101934.0;;;9.71;99.22
64023;BME280;50264;52.088;5.296;2023-02-21T09:10:07;101931.0;;;9.43;100.0
64023;BME280;50264;52.088;5.296;2023-02-21T09:11:47;101931.0;;;9.48;100.0
64023;BME280;50264;52.088;5.296;2023-02-21T09:13:24;101930.0;;;9.46;100.0
64023;BME280;50264;52.088;5.296;2023-02-21T09:16:38;101924.0;;;9.59;100.0
64023;BME280;50264;52.088;5.296;2023-02-21T09:18:15;101925.0;;;9.51;100.0
64023;BME280;50264;52.088;5.296;2023-02-21T09:19:51;101918.0;;;9.57;99.92
64023;BME280;50264;52.088;5.296;2023-02-21T09:23:04;101920.0;;;9.58;99.66
64023;BME280;50264;52.088;5.296;2023-02-21T09:24:41;101920.0;;;9.51;100.0
64023;BME280;50264;52.088;5.296;2023-02-21T09:26:17;101914.0;;;9.42;100.0
64023;BME280;50264;52.088;5.296;2023-02-21T09:29:30;101911.0;;;9.4;100.0
64023;BME280;50264;52.088;5.296;2023-02-21T09:31:07;101915.0;;;9.46;100.0
64023;BME280;50264;52.088;5.296;2023-02-21T09:32:44;101917.0;;;9.47;100.0
64023;BME280;50264;52.088;5.296;2023-02-21T09:34:23;101911.0;;;9.42;100.0
64023;BME280;50264;52.088;5.296;2023-02-21T09:37:37;101913.0;;;9.49;100.0
64023;BME280;50264;52.088;5.296;2023-02-21T09:39:14;101912.0;;;9.59;100.0
64023;BME280;50264;52.088;5.296;2023-02-21T09:40:55;101914.0;;;9.56;100.0
64023;BME280;50264;52.088;5.296;2023-02-21T09:44:14;101907.0;;;9.52;100.0
64023;BME280;50264;52.088;5.296;2023-02-21T09:45:56;101907.0;;;9.63;100.0
64023;BME280;50264;52.088;5.296;2023-02-21T09:47:36;101905.0;;;9.58;99.87
64023;BME280;50264;52.088;5.296;2023-02-21T09:49:16;101911.0;;;9.66;100.0
64023;BME280;50264;52.088;5.296;2023-02-21T09:52:40;101905.0;;;9.67;99.72
64023;BME280;50264;52.088;5.296;2023-02-21T09:54:23;101898.0;;;9.53;100.0
64023;BME280;50264;52.088;5.296;2023-02-21T09:56:04;101899.0;;;9.56;100.0
64023;BME280;50264;52.088;5.296;2023-02-21T09:57:42;101898.0;;;9.5;100.0
64023;BME280;50264;52.088;5.296;2023-02-21T10:00:55;101903.0;;;9.68;100.0
64023;BME280;50264;52.088;5.296;2023-02-21T10:02:42;101899.0;;;9.64;100.0
64023;BME280;50264;52.088;5.296;2023-02-21T10:04:39;101900.0;;;9.76;100.0
64023;BME280;50264;52.088;5.296;2023-02-21T10:06:32;101895.0;;;9.81;100.0
64023;BME280;50264;52.088;5.296;2023-02-21T10:08:21;101893.0;;;9.8;99.8
64023;BME280;50264;52.088;5.296;2023-02-21T10:10:06;101894.0;;;9.72;99.87
64023;BME280;50264;52.088;5.296;2023-02-21T10:13:41;101892.0;;;9.59;100.0
64023;BME280;50264;52.088;5.296;2023-02-21T10:15:36;101896.0;;;9.76;100.0
64023;BME280;50264;52.088;5.296;2023-02-21T10:17:19;101896.0;;;9.73;100.0
64023;BME280;50264;52.088;5.296;2023-02-21T10:19:03;101897.0;;;9.64;100.0
64023;BME280;50264;52.088;5.296;2023-02-21T10:20:46;101893.0;;;9.73;99.92
64023;BME280;50264;52.088;5.296;2023-02-21T10:24:12;101894.0;;;9.75;100.0
64023;BME280;50264;52.088;5.296;2023-02-21T10:25:52;101900.0;;;9.78;99.81
64023;BME280;50264;52.088;5.296;2023-02-21T10:27:32;101901.0;;;9.78;99.43
64023;BME280;50264;52.088;5.296;2023-02-21T10:29:19;101898.0;;;9.76;99.89
64023;BME280;50264;52.088;5.296;2023-02-21T10:30:58;101905.0;;;9.71;100.0
64023;BME280;50264;52.088;5.296;2023-02-21T10:34:19;101901.0;;;9.82;100.0
64023;BME280;50264;52.088;5.296;2023-02-21T10:35:58;101908.0;;;9.84;99.95
64023;BME280;50264;52.088;5.296;2023-02-21T10:37:38;101905.0;;;9.85;99.92
64023;BME280;50264;52.088;5.296;2023-02-21T10:39:18;101905.0;;;9.93;100.0
64023;BME280;50264;52.088;5.296;2023-02-21T10:42:40;101905.0;;;9.9;99.84
64023;BME280;50264;52.088;5.296;2023-02-21T10:44:27;101908.0;;;9.99;99.52
64023;BME280;50264;52.088;5.296;2023-02-21T10:46:12;101905.0;;;9.98;100.0
64023;BME280;50264;52.088;5.296;2023-02-21T10:47:55;101903.0;;;9.99;99.92
64023;BME280;50264;52.088;5.296;2023-02-21T10:51:28;101911.0;;;10.13;99.12
64023;BME280;50264;52.088;5.296;2023-02-21T10:53:06;101905.0;;;10.0;99.02
64023;BME280;50264;52.088;5.296;2023-02-21T10:55:00;101907.0;;;10.03;99.36
64023;BME280;50264;52.088;5.296;2023-02-21T10:56:37;101908.0;;;10.06;99.44
64023;BME280;50264;52.088;5.296;2023-02-21T10:58:17;101903.0;;;10.0;99.15
64023;BME280;50264;52.088;5.296;2023-02-21T11:02:01;101903.0;;;10.0;99.14
64023;BME280;50264;52.088;5.296;2023-02-21T11:03:43;101901.0;;;10.0;99.09
64023;BME280;50264;52.088;5.296;2023-02-21T11:05:21;101899.0;;;10.05;99.57
64023;BME280;50264;52.088;5.296;2023-02-21T11:07:00;101901.0;;;10.08;99.1
64023;BME280;50264;52.088;5.296;2023-02-21T11:08:41;101893.0;;;10.06;99.33
64023;BME280;50264;52.088;5.296;2023-02-21T11:12:19;101897.0;;;9.98;98.95
64023;BME280;50264;52.088;5.296;2023-02-21T11:14:07;101902.0;;;10.08;99.42
64023;BME280;50264;52.088;5.296;2023-02-21T11:16:08;101897.0;;;10.01;98.68
64023;BME280;50264;52.088;5.296;2023-02-21T11:18:02;101897.0;;;9.81;99.27
64023;BME280;50264;52.088;5.296;2023-02-21T11:19:49;101896.0;;;9.8;100.0
64023;BME280;50264;52.088;5.296;2023-02-21T11:21:26;101900.0;;;9.83;100.0
64023;BME280;50264;52.088;5.296;2023-02-21T11:24:58;101897.0;;;9.82;99.88
64023;BME280;50264;52.088;5.296;2023-02-21T11:26:38;101892.0;;;9.81;99.59
64023;BME280;50264;52.088;5.296;2023-02-21T11:28:22;101888.0;;;9.81;99.92
64023;BME280;50264;52.088;5.296;2023-02-21T11:30:08;101892.0;;;9.73;99.85
64023;BME280;50264;52.088;5.296;2023-02-21T11:31:49;101889.0;;;9.76;99.83
64023;BME280;50264;52.088;5.296;2023-02-21T11:35:06;101888.0;;;9.77;99.5
64023;BME280;50264;52.088;5.296;2023-02-21T11:37:00;101890.0;;;9.76;99.54
64023;BME280;50264;52.088;5.296;2023-02-21T11:38:43;101888.0;;;9.69;100.0
64023;BME280;50264;52.088;5.296;2023-02-21T11:40:23;101885.0;;;9.75;100.0
64023;BME280;50264;52.088;5.296;2023-02-21T11:42:24;101890.0;;;9.83;100.0
64023;BME280;50264;52.088;5.296;2023-02-21T11:46:03;101885.0;;;9.75;99.85
64023;BME280;50264;52.088;5.296;2023-02-21T11:47:59;101881.0;;;9.72;100.0
64023;BME280;50264;52.088;5.296;2023-02-21T11:49:47;101885.0;;;9.81;100.0
64023;BME280;50264;52.088;5.296;2023-02-21T11:51:32;101877.0;;;9.89;99.36
64023;BME280;50264;52.088;5.296;2023-02-21T11:53:17;101880.0;;;9.9;99.88
64023;BME280;50264;52.088;5.296;2023-02-21T11:54:57;101878.0;;;9.93;99.39
64023;BME280;50264;52.088;5.296;2023-02-21T11:58:25;101881.0;;;9.98;99.2
64023;BME280;50264;52.088;5.296;2023-02-21T12:00:16;101881.0;;;9.84;99.6
64023;BME280;50264;52.088;5.296;2023-02-21T12:02:17;101880.0;;;9.84;99.48
64023;BME280;50264;52.088;5.296;2023-02-21T12:04:26;101880.0;;;9.9;99.5
64023;BME280;50264;52.088;5.296;2023-02-21T12:06:17;101873.0;;;9.77;99.11
64023;BME280;50264;52.088;5.296;2023-02-21T12:08:16;101875.0;;;9.91;98.93
64023;BME280;50264;52.088;5.296;2023-02-21T12:10:18;101877.0;;;10.0;99.41
64023;BME280;50264;52.088;5.296;2023-02-21T12:12:14;101871.0;;;10.06;99.17
64023;BME280;50264;52.088;5.296;2023-02-21T12:14:10;101869.0;;;10.14;98.25
64023;BME280;50264;52.088;5.296;2023-02-21T12:16:03;101871.0;;;10.09;98.87
64023;BME280;50264;52.088;5.296;2023-02-21T12:17:54;101868.0;;;9.98;98.69
64023;BME280;50264;52.088;5.296;2023-02-21T12:19:52;101866.0;;;9.98;98.75
64023;BME280;50264;52.088;5.296;2023-02-21T12:23:18;101864.0;;;9.96;99.28
64023;BME280;50264;52.088;5.296;2023-02-21T12:25:09;101866.0;;;9.88;99.0
64023;BME280;50264;52.088;5.296;2023-02-21T12:26:56;101864.0;;;9.94;99.46
64023;BME280;50264;52.088;5.296;2023-02-21T12:28:47;101863.0;;;9.91;98.45
64023;BME280;50264;52.088;5.296;2023-02-21T12:30:50;101860.0;;;9.84;98.88
64023;BME280;50264;52.088;5.296;2023-02-21T12:32:47;101857.0;;;10.08;98.61
64023;BME280;50264;52.088;5.296;2023-02-21T12:34:45;101855.0;;;10.06;97.87
64023;BME280;50264;52.088;5.296;2023-02-21T12:36:48;101856.0;;;10.05;98.52
64023;BME280;50264;52.088;5.296;2023-02-21T12:39:35;101852.0;;;10.13;98.6
64023;BME280;50264;52.088;5.296;2023-02-21T12:42:56;101851.0;;;10.14;98.5
64023;BME280;50264;52.088;5.296;2023-02-21T12:44:44;101852.0;;;9.94;97.93
64023;BME280;50264;52.088;5.296;2023-02-21T12:46:34;101850.0;;;9.92;98.49
64023;BME280;50264;52.088;5.296;2023-02-21T12:48:20;101849.0;;;9.92;98.17
64023;BME280;50264;52.088;5.296;2023-02-21T12:50:05;101845.0;;;9.98;98.28
64023;BME280;50264;52.088;5.296;2023-02-21T12:51:53;101845.0;;;9.9;99.16
64023;BME280;50264;52.088;5.296;2023-02-21T12:53:37;101842.0;;;9.84;99.63
64023;BME280;50264;52.088;5.296;2023-02-21T12:55:25;101839.0;;;9.89;99.94
64023;BME280;50264;52.088;5.296;2023-02-21T12:58:48;101835.0;;;10.08;99.74
64023;BME280;50264;52.088;5.296;2023-02-21T13:00:33;101833.0;;;10.1;99.04
64023;BME280;50264;52.088;5.296;2023-02-21T13:02:22;101830.0;;;10.1;98.12
64023;BME280;50264;52.088;5.296;2023-02-21T13:04:07;101834.0;;;10.14;98.65
64023;BME280;50264;52.088;5.296;2023-02-21T13:05:53;101831.0;;;10.14;98.33
64023;BME280;50264;52.088;5.296;2023-02-21T13:09:21;101832.0;;;10.03;98.61
64023;BME280;50264;52.088;5.296;2023-02-21T13:11:12;101832.0;;;10.07;99.18
64023;BME280;50264;52.088;5.296;2023-02-21T13:12:55;101831.0;;;9.98;98.63
64023;BME280;50264;52.088;5.296;2023-02-21T13:14:39;101830.0;;;10.0;99.07
64023;BME280;50264;52.088;5.296;2023-02-21T13:16:18;101834.0;;;10.06;99.15
64023;BME280;50264;52.088;5.296;2023-02-21T13:19:42;101826.0;;;10.13;98.91
64023;BME280;50264;52.088;5.296;2023-02-21T13:21:28;101825.0;;;10.1;98.92
64023;BME280;50264;52.088;5.296;2023-02-21T13:24:42;101820.0;;;10.15;98.82
64023;BME280;50264;52.088;5.296;2023-02-21T13:26:55;101824.0;;;10.14;98.86
64023;BME280;50264;52.088;5.296;2023-02-21T13:29:23;101822.0;;;10.09;99.25
64023;BME280;50264;52.088;5.296;2023-02-21T13:31:01;101817.0;;;10.18;98.72
64023;BME280;50264;52.088;5.296;2023-02-21T13:34:29;101812.0;;;10.14;98.54
64023;BME280;50264;52.088;5.296;2023-02-21T13:36:20;101807.0;;;10.14;98.52
64023;BME280;50264;52.088;5.296;2023-02-21T13:38:07;101808.0;;;10.23;98.97
64023;BME280;50264;52.088;5.296;2023-02-21T13:39:48;101805.0;;;10.13;99.15
64023;BME280;50264;52.088;5.296;2023-02-21T13:41:29;101805.0;;;10.24;98.71